createdAt,value
2019-02-22T00:00:09.376Z,102673.89
2019-02-22T00:02:40.029Z,102682.27
2019-02-22T00:05:09.919Z,102688.53
2019-02-22T00:07:39.772Z,102693.53
2019-02-22T00:10:09.380Z,102698.88
2019-02-22T00:12:39.264Z,102693.69
2019-02-22T00:15:09.106Z,102690.94
2019-02-22T00:17:38.715Z,102703.20
2019-02-22T00:20:08.987Z,102707.55
2019-02-22T00:22:39.031Z,102716.65
2019-02-22T00:25:08.678Z,102714.87
2019-02-22T00:27:38.331Z,102719.34
2019-02-22T00:30:08.812Z,102728.50
2019-02-22T00:32:38.416Z,102738.66
2019-02-22T00:35:09.184Z,102747.56
2019-02-22T00:37:38.982Z,102752.15
2019-02-22T00:40:08.581Z,102749.99
2019-02-22T00:42:39.292Z,102745.37
2019-02-22T00:45:09.261Z,102752.90
2019-02-22T00:47:39.363Z,102752.90
2019-02-22T00:50:08.993Z,102761.59
2019-02-22T00:52:39.239Z,102772.33
2019-02-22T00:55:09.338Z,102774.73
2019-02-22T00:57:39.192Z,102786.32
2019-02-22T01:00:10.168Z,102784.99
2019-02-22T01:02:39.780Z,102793.30
2019-02-22T01:05:09.531Z,102801.19
2019-02-22T01:07:39.772Z,102810.36
2019-02-22T01:10:09.652Z,102824.61
2019-02-22T01:12:39.263Z,102812.09
2019-02-22T01:15:09.722Z,102814.59
2019-02-22T01:17:39.334Z,102819.58
2019-02-22T01:20:09.021Z,102833.34
2019-02-22T01:22:38.873Z,102840.84
2019-02-22T01:25:08.936Z,102848.04
2019-02-22T01:27:38.535Z,102857.28
2019-02-22T01:30:10.324Z,102861.94
2019-02-22T01:32:40.558Z,102869.53
2019-02-22T01:35:10.279Z,102868.83
2019-02-22T01:37:40.149Z,102876.00
2019-02-22T01:40:10.596Z,102887.16
2019-02-22T01:42:41.106Z,102896.35
2019-02-22T01:45:10.831Z,102903.89
2019-02-22T01:47:42.004Z,102906.87
2019-02-22T01:50:20.191Z,102909.88
2019-02-22T01:52:50.163Z,102918.64
2019-02-22T01:55:20.464Z,102923.97
2019-02-22T01:57:50.198Z,102926.42
2019-02-22T02:00:20.040Z,102933.08
2019-02-22T02:02:50.416Z,102938.16
2019-02-22T02:05:20.423Z,102943.70
2019-02-22T02:07:50.893Z,102946.91
2019-02-22T02:10:20.844Z,102949.27
2019-02-22T02:12:50.648Z,102949.98
2019-02-22T02:15:20.411Z,102963.20
2019-02-22T02:17:50.031Z,102963.86
2019-02-22T02:20:19.702Z,102974.06
2019-02-22T02:22:49.329Z,102979.74
2019-02-22T02:25:19.054Z,102986.31
2019-02-22T02:27:49.234Z,102991.16
2019-02-22T02:30:19.379Z,102998.88
2019-02-22T02:32:49.140Z,103008.47
2019-02-22T02:35:18.759Z,103010.02
2019-02-22T02:37:48.724Z,103022.07
2019-02-22T02:40:18.351Z,103023.81
2019-02-22T02:42:47.971Z,103028.41
2019-02-22T02:45:17.618Z,103029.20
2019-02-22T02:47:48.460Z,103039.61
2019-02-22T02:50:18.449Z,103040.47
2019-02-22T02:52:48.707Z,103043.79
2019-02-22T02:55:29.533Z,103048.55
2019-02-22T02:58:01.640Z,103052.04
2019-02-22T03:00:31.265Z,103056.55
2019-02-22T03:03:00.889Z,103064.45
2019-02-22T03:05:45.335Z,103066.09
2019-02-22T03:08:14.948Z,103077.25
2019-02-22T03:10:44.847Z,103083.70
2019-02-22T03:13:14.870Z,103091.33
2019-02-22T03:15:44.754Z,103096.81
2019-02-22T03:18:14.380Z,103097.00
2019-02-22T03:20:44.052Z,103110.47
2019-02-22T03:23:13.688Z,103120.66
2019-02-22T03:25:43.970Z,103122.44
2019-02-22T03:28:13.900Z,103133.89
2019-02-22T03:30:43.536Z,103142.85
2019-02-22T03:33:13.298Z,103148.95
2019-02-22T03:35:43.103Z,103159.61
2019-02-22T03:38:13.006Z,103161.50
2019-02-22T03:40:42.999Z,103173.91
2019-02-22T03:43:12.930Z,103169.27
2019-02-22T03:45:42.549Z,103177.04
2019-02-22T03:48:12.334Z,103185.52
2019-02-22T03:50:41.990Z,103180.76
2019-02-22T03:53:13.253Z,103188.02
2019-02-22T03:55:43.176Z,103196.56
2019-02-22T03:58:13.055Z,103204.33
2019-02-22T04:00:45.490Z,103199.14
2019-02-22T04:03:15.315Z,103209.59
2019-02-22T04:05:45.313Z,103212.02
2019-02-22T04:08:15.200Z,103220.44
2019-02-22T04:10:44.827Z,103229.56
2019-02-22T04:13:14.776Z,103236.19
2019-02-22T04:15:44.571Z,103239.94
2019-02-22T04:18:14.425Z,103245.78
2019-02-22T04:20:44.096Z,103247.89
2019-02-22T04:23:13.832Z,103258.14
2019-02-22T04:25:43.614Z,103270.55
2019-02-22T04:28:13.451Z,103271.75
2019-02-22T04:30:43.067Z,103279.67
2019-02-22T04:33:12.689Z,103288.41
2019-02-22T04:35:44.042Z,103296.75
2019-02-22T04:38:15.304Z,103306.22
2019-02-22T04:40:45.409Z,103308.98
2019-02-22T04:43:15.065Z,103315.18
2019-02-22T04:45:44.690Z,103327.66
2019-02-22T04:48:14.309Z,103330.67
2019-02-22T04:50:44.001Z,103338.67
2019-02-22T04:53:13.734Z,103344.05
2019-02-22T04:55:43.628Z,103354.77
2019-02-22T04:58:13.410Z,103360.88
2019-02-22T05:00:43.030Z,103380.38
2019-02-22T05:03:12.717Z,103384.06
2019-02-22T05:05:42.380Z,103389.37
2019-02-22T05:08:12.068Z,103398.95
2019-02-22T05:10:43.478Z,103405.54
2019-02-22T05:13:14.834Z,103412.81
2019-02-22T05:15:46.026Z,103413.92
2019-02-22T05:18:17.233Z,103416.47
2019-02-22T05:20:46.991Z,103433.55
2019-02-22T05:23:16.604Z,103437.30
2019-02-22T05:25:46.997Z,103440.17
2019-02-22T05:28:16.692Z,103440.52
2019-02-22T05:30:47.399Z,103450.16
2019-02-22T05:33:17.034Z,103455.70
2019-02-22T05:35:46.773Z,103462.94
2019-02-22T05:38:17.310Z,103462.67
2019-02-22T05:40:48.020Z,103475.59
2019-02-22T05:43:17.800Z,103474.82
2019-02-22T05:45:48.157Z,103491.05
2019-02-22T05:48:18.165Z,103498.87
2019-02-22T05:50:47.937Z,103507.59
2019-02-22T05:53:17.552Z,103507.05
2019-02-22T05:55:47.183Z,103516.11
2019-02-22T05:58:18.234Z,103528.20
2019-02-22T06:00:47.850Z,103540.34
2019-02-22T06:03:17.473Z,103544.61
2019-02-22T06:05:47.625Z,103559.28
2019-02-22T06:08:18.135Z,103565.00
2019-02-22T06:10:48.331Z,103569.91
2019-02-22T06:13:18.815Z,103579.89
2019-02-22T06:15:48.545Z,103590.02
2019-02-22T06:18:18.158Z,103588.04
2019-02-22T06:20:48.143Z,103600.66
2019-02-22T06:23:18.236Z,103606.66
2019-02-22T06:25:47.876Z,103607.20
2019-02-22T06:28:19.132Z,103619.61
2019-02-22T06:30:48.756Z,103613.23
2019-02-22T06:33:18.525Z,103619.33
2019-02-22T06:35:48.215Z,103625.48
2019-02-22T06:38:18.536Z,103634.94
2019-02-22T06:40:49.525Z,103638.81
2019-02-22T06:43:19.955Z,103647.70
2019-02-22T06:45:49.574Z,103651.44
2019-02-22T06:48:19.180Z,103656.91
2019-02-22T06:50:48.857Z,103659.88
2019-02-22T06:53:18.479Z,103674.91
2019-02-22T06:55:48.215Z,103681.71
2019-02-22T06:58:17.951Z,103679.80
2019-02-22T07:00:47.639Z,103690.10
2019-02-22T07:03:17.290Z,103694.99
2019-02-22T07:05:46.949Z,103698.14
2019-02-22T07:08:16.563Z,103703.41
2019-02-22T07:11:05.715Z,103719.26
2019-02-22T07:13:35.343Z,103718.01
2019-02-22T07:16:06.495Z,103732.14
2019-02-22T07:18:36.168Z,103743.77
2019-02-22T07:21:05.778Z,103749.63
2019-02-22T07:23:35.387Z,103758.36
2019-02-22T07:26:05.534Z,103760.86
2019-02-22T07:28:35.296Z,103779.69
2019-02-22T07:31:05.025Z,103791.37
2019-02-22T07:33:34.699Z,103793.48
2019-02-22T07:36:04.480Z,103800.20
2019-02-22T07:38:34.103Z,103809.86
2019-02-22T07:41:03.870Z,103823.30
2019-02-22T07:43:33.756Z,103825.08
2019-02-22T07:46:03.406Z,103836.80
2019-02-22T07:48:33.450Z,103844.35
2019-02-22T07:51:03.735Z,103847.32
2019-02-22T07:53:33.523Z,103854.63
2019-02-22T07:56:03.726Z,103853.95
2019-02-22T07:58:33.360Z,103856.98
2019-02-22T08:01:03.081Z,103874.56
2019-02-22T08:03:32.852Z,103877.50
2019-02-22T08:06:02.741Z,103881.34
2019-02-22T08:08:32.358Z,103883.06
2019-02-22T08:11:02.170Z,103890.61
2019-02-22T08:13:32.174Z,103898.59
2019-02-22T08:16:01.793Z,103902.81
2019-02-22T08:18:31.555Z,103905.84
2019-02-22T08:21:01.286Z,103906.05
2019-02-22T08:23:31.192Z,103900.75
2019-02-22T08:26:00.859Z,103907.05
2019-02-22T08:28:30.869Z,103905.80
2019-02-22T08:31:00.487Z,103900.80
2019-02-22T08:33:30.344Z,103917.00
2019-02-22T08:35:59.965Z,103922.91
2019-02-22T08:38:29.586Z,103927.23
2019-02-22T08:40:59.364Z,103936.13
2019-02-22T08:43:31.841Z,103936.94
2019-02-22T08:46:00.473Z,103941.94
2019-02-22T08:48:30.172Z,103953.86
2019-02-22T08:50:59.835Z,103958.80
2019-02-22T08:53:31.227Z,103976.61
2019-02-22T08:56:02.431Z,103968.66
2019-02-22T08:58:32.839Z,103972.23
2019-02-22T09:01:02.467Z,103970.55
2019-02-22T09:03:33.162Z,103975.55
2019-02-22T09:06:02.778Z,103982.86
2019-02-22T09:08:33.315Z,103988.63
2019-02-22T09:11:03.246Z,103979.97
2019-02-22T09:13:43.098Z,103992.47
2019-02-22T09:16:04.240Z,103990.02
2019-02-22T09:18:34.041Z,104004.83
2019-02-22T09:21:03.687Z,104007.19
2019-02-22T09:23:33.678Z,104021.23
2019-02-22T09:26:03.327Z,104023.98
2019-02-22T09:28:32.960Z,104024.70
2019-02-22T09:31:04.146Z,104028.74
2019-02-22T09:33:33.823Z,104034.38
2019-02-22T09:36:04.112Z,104041.58
2019-02-22T09:38:34.201Z,104048.45
2019-02-22T09:41:03.863Z,104052.89
2019-02-22T09:43:33.822Z,104057.59
2019-02-22T09:46:03.448Z,104056.73
2019-02-22T09:48:33.799Z,104065.16
2019-02-22T09:51:03.785Z,104063.03
2019-02-22T09:53:33.782Z,104071.41
2019-02-22T09:56:03.606Z,104073.91
2019-02-22T09:58:33.232Z,104079.23
2019-02-22T10:01:02.857Z,104085.73
2019-02-22T10:03:33.385Z,104086.80
2019-02-22T10:06:03.376Z,104096.81
2019-02-22T10:08:34.460Z,104101.09
2019-02-22T10:11:04.413Z,104101.57
2019-02-22T10:13:34.033Z,104098.68
2019-02-22T10:16:03.656Z,104109.08
2019-02-22T10:18:33.885Z,104113.70
2019-02-22T10:21:03.515Z,104118.31
2019-02-22T10:23:33.891Z,104116.25
2019-02-22T10:26:03.541Z,104122.69
2019-02-22T10:28:33.629Z,104122.75
2019-02-22T10:31:03.641Z,104129.95
2019-02-22T10:33:36.914Z,104131.36
2019-02-22T10:36:05.421Z,104138.63
2019-02-22T10:38:36.172Z,104128.77
2019-02-22T10:41:05.861Z,104133.53
2019-02-22T10:43:36.553Z,104130.40
2019-02-22T10:46:06.173Z,104134.84
2019-02-22T10:48:36.834Z,104138.27
2019-02-22T10:51:06.460Z,104135.07
2019-02-22T10:53:37.044Z,104140.91
2019-02-22T10:56:06.706Z,104136.47
2019-02-22T10:58:36.519Z,104133.34
2019-02-22T11:01:06.498Z,104129.39
2019-02-22T11:03:36.357Z,104127.42
2019-02-22T11:06:05.976Z,104131.66
2019-02-22T11:08:37.312Z,104136.66
2019-02-22T11:11:07.048Z,104137.91
2019-02-22T11:13:36.661Z,104146.77
2019-02-22T11:16:06.346Z,104148.16
2019-02-22T11:18:39.388Z,104148.70
2019-02-22T11:21:09.181Z,104138.77
2019-02-22T11:23:39.179Z,104149.31
2019-02-22T11:26:08.834Z,104151.87
2019-02-22T11:28:38.614Z,104147.81
2019-02-22T11:31:08.228Z,104150.94
2019-02-22T11:33:37.917Z,104154.50
2019-02-22T11:36:07.996Z,104164.81
2019-02-22T11:38:37.731Z,104167.62
2019-02-22T11:41:07.388Z,104168.39
2019-02-22T11:43:36.998Z,104173.98
2019-02-22T11:46:06.982Z,104171.06
2019-02-22T11:48:36.810Z,104175.23
2019-02-22T11:51:06.416Z,104176.84
2019-02-22T11:53:36.717Z,104189.27
2019-02-22T11:56:07.850Z,104200.13
2019-02-22T11:58:37.508Z,104211.44
2019-02-22T12:01:08.535Z,104200.50
2019-02-22T12:03:38.758Z,104204.19
2019-02-22T12:06:08.384Z,104202.03
2019-02-22T12:08:37.992Z,104206.48
2019-02-22T12:11:07.647Z,104199.48
2019-02-22T12:13:38.154Z,104201.34
2019-02-22T12:16:09.030Z,104206.95
2019-02-22T12:18:38.848Z,104204.83
2019-02-22T12:21:08.571Z,104208.23
2019-02-22T12:23:38.198Z,104211.54
2019-02-22T12:26:07.855Z,104204.37
2019-02-22T12:28:38.360Z,104217.84
2019-02-22T12:31:08.311Z,104223.89
2019-02-22T12:33:38.008Z,104218.66
2019-02-22T12:36:09.537Z,104220.17
2019-02-22T12:38:39.007Z,104220.50
2019-02-22T12:41:09.052Z,104226.77
2019-02-22T12:43:38.653Z,104220.27
2019-02-22T12:46:08.327Z,104215.17
2019-02-22T12:48:38.139Z,104220.84
2019-02-22T12:51:07.759Z,104214.68
2019-02-22T12:53:38.315Z,104218.67
2019-02-22T12:56:08.500Z,104222.34
2019-02-22T12:58:38.132Z,104222.29
2019-02-22T13:01:09.661Z,104221.40
2019-02-22T13:03:39.621Z,104219.59
2019-02-22T13:06:10.241Z,104224.31
2019-02-22T13:08:39.967Z,104219.48
2019-02-22T13:11:09.739Z,104222.94
2019-02-22T13:13:39.482Z,104226.80
2019-02-22T13:16:10.191Z,104225.20
2019-02-22T13:18:41.892Z,104225.42
2019-02-22T13:21:11.598Z,104231.11
2019-02-22T13:23:41.347Z,104230.25
2019-02-22T13:26:11.563Z,104236.67
2019-02-22T13:28:41.186Z,104244.05
2019-02-22T13:31:11.434Z,104238.46
2019-02-22T13:33:41.697Z,104239.16
2019-02-22T13:36:11.407Z,104243.44
2019-02-22T13:38:41.013Z,104246.25
2019-02-22T13:41:10.687Z,104253.64
2019-02-22T13:43:40.415Z,104251.66
2019-02-22T13:46:11.742Z,104252.75
2019-02-22T13:48:41.959Z,104252.50
2019-02-22T13:51:12.237Z,104254.91
2019-02-22T13:53:41.859Z,104258.95
2019-02-22T13:56:11.509Z,104267.98
2019-02-22T13:58:41.137Z,104265.02
2019-02-22T14:01:11.254Z,104269.78
2019-02-22T14:03:41.000Z,104270.22
2019-02-22T14:06:10.692Z,104274.38
2019-02-22T14:08:42.533Z,104288.81
2019-02-22T14:11:12.246Z,104281.26
2019-02-22T14:13:42.798Z,104286.58
2019-02-22T14:16:12.694Z,104286.33
2019-02-22T14:18:42.869Z,104285.64
2019-02-22T14:21:12.494Z,104279.66
2019-02-22T14:23:42.130Z,104278.78
2019-02-22T14:26:11.786Z,104283.34
2019-02-22T14:28:41.606Z,104272.03
2019-02-22T14:31:11.401Z,104270.25
2019-02-22T14:33:41.078Z,104274.97
2019-02-22T14:36:11.335Z,104268.45
2019-02-22T14:38:41.018Z,104269.80
2019-02-22T14:41:10.704Z,104269.88
2019-02-22T14:43:40.683Z,104274.31
2019-02-22T14:46:10.424Z,104269.44
2019-02-22T14:48:40.375Z,104267.65
2019-02-22T14:51:10.097Z,104257.81
2019-02-22T14:53:40.908Z,104265.55
2019-02-22T14:56:10.963Z,104263.22
2019-02-22T14:58:43.284Z,104265.72
2019-02-22T15:01:12.025Z,104262.67
2019-02-22T15:03:41.700Z,104266.08
2019-02-22T15:06:11.667Z,104260.17
2019-02-22T15:08:41.295Z,104267.74
2019-02-22T15:11:13.443Z,104254.03
2019-02-22T15:13:44.129Z,104260.06
2019-02-22T15:16:21.114Z,104260.30
2019-02-22T15:18:50.898Z,104262.15
2019-02-22T15:21:20.682Z,104276.42
2019-02-22T15:23:51.590Z,104268.55
2019-02-22T15:26:21.413Z,104264.84
2019-02-22T15:28:51.945Z,104272.06
2019-02-22T15:31:21.725Z,104278.16
2019-02-22T15:33:51.357Z,104277.39
2019-02-22T15:36:22.398Z,104278.33
2019-02-22T15:38:52.918Z,104275.59
2019-02-22T15:41:22.533Z,104279.09
2019-02-22T15:43:52.178Z,104281.46
2019-02-22T15:46:22.050Z,104285.25
2019-02-22T15:48:51.667Z,104279.41
2019-02-22T15:51:21.957Z,104279.14
2019-02-22T15:53:51.607Z,104282.20
2019-02-22T15:56:21.231Z,104285.77
2019-02-22T15:58:50.849Z,104286.50
2019-02-22T16:01:20.498Z,104285.14
2019-02-22T16:03:52.657Z,104290.17
2019-02-22T16:06:23.055Z,104287.28
2019-02-22T16:08:52.933Z,104289.92
2019-02-22T16:11:22.552Z,104297.56
2019-02-22T16:13:52.448Z,104297.28
2019-02-22T16:16:23.513Z,104292.47
2019-02-22T16:18:53.341Z,104291.78
2019-02-22T16:21:22.961Z,104296.59
2019-02-22T16:23:52.721Z,104301.05
2019-02-22T16:26:25.845Z,104300.89
2019-02-22T16:28:55.459Z,104307.08
2019-02-22T16:31:26.078Z,104314.02
2019-02-22T16:33:56.027Z,104310.09
2019-02-22T16:36:25.711Z,104315.10
2019-02-22T16:38:55.450Z,104318.50
2019-02-22T16:41:25.084Z,104319.44
2019-02-22T16:43:54.719Z,104325.84
2019-02-22T16:46:34.494Z,104324.78
2019-02-22T16:48:56.362Z,104330.35
2019-02-22T16:51:27.438Z,104330.39
2019-02-22T16:53:57.148Z,104334.69
2019-02-22T16:56:27.820Z,104335.88
2019-02-22T16:58:59.097Z,104342.97
2019-02-22T17:01:28.783Z,104342.36
2019-02-22T17:03:58.421Z,104342.61
2019-02-22T17:06:28.164Z,104345.80
2019-02-22T17:08:57.858Z,104341.64
2019-02-22T17:11:27.847Z,104349.54
2019-02-22T17:13:57.508Z,104346.97
2019-02-22T17:16:27.171Z,104352.19
2019-02-22T17:18:57.021Z,104355.36
2019-02-22T17:21:26.655Z,104358.56
2019-02-22T17:23:58.412Z,104361.84
2019-02-22T17:26:28.052Z,104361.47
2019-02-22T17:28:57.804Z,104367.61
2019-02-22T17:31:27.586Z,104373.97
2019-02-22T17:33:57.247Z,104374.36
2019-02-22T17:36:27.358Z,104377.80
2019-02-22T17:38:57.148Z,104373.69
2019-02-22T17:41:27.761Z,104384.53
2019-02-22T17:43:57.414Z,104378.19
2019-02-22T17:46:27.141Z,104385.48
2019-02-22T17:48:58.829Z,104385.55
2019-02-22T17:51:30.543Z,104392.84
2019-02-22T17:54:00.852Z,104391.59
2019-02-22T17:56:30.600Z,104389.96
2019-02-22T17:59:01.036Z,104391.89
2019-02-22T18:01:32.244Z,104396.37
2019-02-22T18:04:02.011Z,104396.94
2019-02-22T18:06:31.706Z,104410.63
2019-02-22T18:09:01.576Z,104416.17
2019-02-22T18:11:31.231Z,104424.69
2019-02-22T18:14:00.889Z,104429.19
2019-02-22T18:16:30.673Z,104428.75
2019-02-22T18:19:00.935Z,104431.23
2019-02-22T18:21:30.860Z,104425.72
2019-02-22T18:24:00.661Z,104430.86
2019-02-22T18:26:30.301Z,104434.38
2019-02-22T18:28:59.937Z,104425.89
2019-02-22T18:31:30.934Z,104429.10
2019-02-22T18:34:00.746Z,104434.75
2019-02-22T18:36:30.405Z,104440.27
2019-02-22T18:39:00.100Z,104436.71
2019-02-22T18:41:29.750Z,104442.84
2019-02-22T18:44:01.058Z,104442.52
2019-02-22T18:46:30.740Z,104438.00
2019-02-22T18:49:01.792Z,104444.10
2019-02-22T18:51:31.844Z,104443.15
2019-02-22T18:54:01.533Z,104442.47
2019-02-22T18:56:31.176Z,104446.20
2019-02-22T18:59:01.474Z,104449.23
2019-02-22T19:01:31.220Z,104444.22
2019-02-22T19:04:03.401Z,104449.25
2019-02-22T19:06:33.211Z,104452.56
2019-02-22T19:09:02.932Z,104447.75
2019-02-22T19:11:32.645Z,104448.58
2019-02-22T19:14:02.304Z,104452.86
2019-02-22T19:16:32.098Z,104443.56
2019-02-22T19:19:02.240Z,104449.17
2019-02-22T19:21:32.227Z,104449.54
2019-02-22T19:24:01.906Z,104450.11
2019-02-22T19:26:32.623Z,104451.77
2019-02-22T19:29:02.256Z,104446.87
2019-02-22T19:31:32.243Z,104459.09
2019-02-22T19:34:01.886Z,104457.72
2019-02-22T19:36:31.639Z,104457.88
2019-02-22T19:39:01.492Z,104456.58
2019-02-22T19:41:31.127Z,104465.97
2019-02-22T19:44:01.074Z,104468.77
2019-02-22T19:46:31.263Z,104470.08
2019-02-22T19:49:01.212Z,104474.18
2019-02-22T19:51:30.845Z,104470.91
2019-02-22T19:54:00.558Z,104469.30
2019-02-22T19:56:30.372Z,104467.31
2019-02-22T19:59:03.111Z,104467.97
2019-02-22T20:01:32.937Z,104468.99
2019-02-22T20:04:05.757Z,104474.20
2019-02-22T20:06:41.703Z,104465.20
2019-02-22T20:09:13.366Z,104468.65
2019-02-22T20:11:44.040Z,104476.47
2019-02-22T20:14:14.346Z,104479.23
2019-02-22T20:16:44.312Z,104476.41
2019-02-22T20:19:14.064Z,104473.33
2019-02-22T20:21:44.970Z,104476.34
2019-02-22T20:24:15.889Z,104474.88
2019-02-22T20:26:45.715Z,104473.14
2019-02-22T20:29:15.347Z,104471.80
2019-02-22T20:31:45.739Z,104480.24
2019-02-22T20:34:17.020Z,104478.04
2019-02-22T20:36:46.700Z,104473.22
2019-02-22T20:39:16.378Z,104474.46
2019-02-22T20:41:48.344Z,104461.08
2019-02-22T20:44:18.466Z,104465.55
2019-02-22T20:46:49.139Z,104474.52
2019-02-22T20:49:18.901Z,104477.24
2019-02-22T20:51:48.594Z,104480.37
2019-02-22T20:54:21.362Z,104484.84
2019-02-22T20:56:50.965Z,104483.87
2019-02-22T20:59:20.975Z,104489.09
2019-02-22T21:01:51.167Z,104497.68
2019-02-22T21:04:21.540Z,104498.56
2019-02-22T21:06:51.168Z,104506.48
2019-02-22T21:09:21.714Z,104505.28
2019-02-22T21:11:51.425Z,104511.64
2019-02-22T21:14:21.313Z,104502.88
2019-02-22T21:16:51.120Z,104500.89
2019-02-22T21:19:20.749Z,104492.34
2019-02-22T21:21:50.392Z,104501.27
2019-02-22T21:24:21.179Z,104504.77
2019-02-22T21:26:52.253Z,104510.39
2019-02-22T21:29:21.887Z,104500.23
2019-02-22T21:31:51.595Z,104510.03
2019-02-22T21:34:21.337Z,104512.28
2019-02-22T21:36:51.974Z,104509.67
2019-02-22T21:39:22.948Z,104518.36
2019-02-22T21:41:52.700Z,104527.05
2019-02-22T21:44:23.517Z,104526.72
2019-02-22T21:46:53.476Z,104531.45
2019-02-22T21:49:23.254Z,104534.55
2019-02-22T21:51:53.006Z,104521.91
2019-02-22T21:54:23.230Z,104521.44
2019-02-22T21:56:52.860Z,104532.61
2019-02-22T21:59:22.500Z,104538.64
2019-02-22T22:01:52.176Z,104533.06
2019-02-22T22:04:22.005Z,104530.69
2019-02-22T22:06:51.758Z,104537.12
2019-02-22T22:09:21.545Z,104539.36
2019-02-22T22:11:51.223Z,104534.25
2019-02-22T22:14:21.197Z,104539.75
2019-02-22T22:16:50.934Z,104536.98
2019-02-22T22:19:20.571Z,104530.22
2019-02-22T22:21:50.203Z,104520.27
2019-02-22T22:24:20.042Z,104523.12
2019-02-22T22:26:54.890Z,104515.57
2019-02-22T22:29:24.722Z,104533.57
2019-02-22T22:31:54.487Z,104536.78
2019-02-22T22:34:24.121Z,104530.92
2019-02-22T22:36:53.780Z,104539.19
2019-02-22T22:39:23.452Z,104552.56
2019-02-22T22:41:53.086Z,104552.27
2019-02-22T22:44:23.080Z,104547.12
2019-02-22T22:46:52.767Z,104546.54
2019-02-22T22:49:22.396Z,104552.58
2019-02-22T22:51:52.160Z,104544.70
2019-02-22T22:54:22.084Z,104546.73
2019-02-22T22:56:51.888Z,104545.70
2019-02-22T22:59:21.525Z,104545.92
2019-02-22T23:01:51.906Z,104545.92
2019-02-22T23:04:22.214Z,104542.06
2019-02-22T23:06:52.011Z,104536.63
2019-02-22T23:09:23.186Z,104534.61
2019-02-22T23:11:53.615Z,104533.37
2019-02-22T23:14:23.325Z,104526.53
2019-02-22T23:16:53.105Z,104526.09
2019-02-22T23:19:23.093Z,104523.30
2019-02-22T23:21:52.739Z,104525.71
2019-02-22T23:24:23.506Z,104518.06
2019-02-22T23:26:53.137Z,104515.84
2019-02-22T23:29:22.797Z,104515.51
2019-02-22T23:31:52.546Z,104514.69
2019-02-22T23:34:22.348Z,104520.49
2019-02-22T23:36:52.147Z,104519.66
2019-02-22T23:39:22.078Z,104513.33
2019-02-22T23:41:51.710Z,104510.09
2019-02-22T23:44:21.352Z,104520.04
2019-02-22T23:46:51.054Z,104510.58
2019-02-22T23:49:21.379Z,104509.55
2019-02-22T23:51:51.306Z,104505.06
2019-02-22T23:54:20.975Z,104512.36
2019-02-22T23:56:51.451Z,104517.76
2019-02-22T23:59:22.163Z,104515.59
